Time;durP1;ratioP1;P1;durP2;ratioP2;P2;SDS_P1;SDS_P2;PMS_P1;PMS_P2;Temp;Humidity;BMP_temperature;BMP_pressure;BME280_temperature;BME280_humidity;BME280_pressure;Samples;Min_cycle;Max_cycle;Signal;HPM_P1;HPM_P2
2023/08/24 00:01:38;;;;;;;6.32;2.47;;;;;;;;;;4975890;28;20437;-71
2023/08/24 00:04:03;;;;;;;3.05;1.83;;;15.20;99.90;;;;;;4981527;28;20043;-71
2023/08/24 00:06:29;;;;;;;2.42;1.40;;;;;;;;;;4976418;28;20444;-71
2023/08/24 00:08:55;;;;;;;1.42;1.02;;;15.00;99.90;;;;;;5004383;28;20041;-71
2023/08/24 00:11:20;;;;;;;1.50;1.20;;;15.00;99.90;;;;;;5000420;28;20770;-71
2023/08/24 00:13:51;;;;;;;0.90;0.63;;;14.90;99.90;;;;;;4984725;28;20096;-71
2023/08/24 00:16:20;;;;;;;1.60;1.40;;;14.80;99.90;;;;;;4986458;28;20084;-71
2023/08/24 00:18:46;;;;;;;1.70;1.30;;;;;;;;;;4997803;28;20042;-71
2023/08/24 00:21:22;;;;;;;2.35;1.08;;;14.60;99.90;;;;;;5005487;28;20041;-71
2023/08/24 00:23:48;;;;;;;1.45;1.10;;;;;;;;;;4987738;28;20141;-71
2023/08/24 00:26:16;;;;;;;2.55;1.35;;;;;;;;;;4988485;28;20042;-71
2023/08/24 00:28:42;;;;;;;4.78;1.05;;;;;;;;;;5006145;28;20046;-71
2023/08/24 00:31:08;;;;;;;5.80;1.90;;;;;;;;;;5005264;28;20063;-72
2023/08/24 00:33:34;;;;;;;6.45;1.77;;;14.40;99.90;;;;;;5004699;28;20053;-71
2023/08/24 00:36:05;;;;;;;3.00;2.22;;;14.50;99.90;;;;;;4988727;28;20126;-71
2023/08/24 00:38:31;;;;;;;5.88;2.58;;;;;;;;;;5006664;28;20045;-71
2023/08/24 00:40:58;;;;;;;5.78;2.47;;;;;;;;;;4981684;28;20100;-71
2023/08/24 00:43:25;;;;;;;4.72;2.72;;;14.40;99.90;;;;;;4987315;28;20480;-71
2023/08/24 00:45:51;;;;;;;4.50;2.40;;;14.70;99.90;;;;;;4985783;28;20050;-71
2023/08/24 00:48:18;;;;;;;4.15;3.05;;;14.40;99.90;;;;;;4984898;28;20038;-71
2023/08/24 00:50:44;;;;;;;3.90;2.30;;;;;;;;;;4983897;28;20050;-71
2023/08/24 00:53:10;;;;;;;4.18;2.92;;;;;;;;;;5001936;28;20078;-71
2023/08/24 00:55:36;;;;;;;6.13;2.22;;;;;;;;;;4999913;28;20112;-71
2023/08/24 00:58:03;;;;;;;3.78;2.20;;;14.50;99.90;;;;;;4995044;28;20046;-70
2023/08/24 01:00:29;;;;;;;3.60;2.42;;;;;;;;;;5001952;28;20046;-71
2023/08/24 01:02:55;;;;;;;4.35;2.67;;;;;;;;;;5004029;28;20042;-71
2023/08/24 01:05:21;;;;;;;2.60;2.40;;;;;;;;;;4987007;28;20045;-71
2023/08/24 01:07:47;;;;;;;5.95;2.70;;;14.70;99.90;;;;;;4985467;28;20046;-71
2023/08/24 01:10:13;;;;;;;4.80;3.05;;;;;;;;;;4999466;28;20060;-71
2023/08/24 01:12:39;;;;;;;4.22;2.92;;;;;;;;;;4985979;28;20845;-71
2023/08/24 01:15:30;;;;;;;5.75;2.70;;;14.50;99.90;;;;;;4985654;28;20061;-71
2023/08/24 01:18:03;;;;;;;4.00;2.60;;;14.50;99.90;;;;;;4985727;28;20359;-71
2023/08/24 01:20:30;;;;;;;6.38;3.33;;;14.50;99.90;;;;;;4984176;28;20095;-71
2023/08/24 01:23:04;;;;;;;5.07;3.20;;;14.40;99.90;;;;;;5005194;28;20113;-71
2023/08/24 01:25:40;;;;;;;7.18;3.15;;;14.70;99.90;;;;;;4982996;28;20052;-71
2023/08/24 01:28:06;;;;;;;9.52;3.33;;;14.70;99.90;;;;;;5001675;28;20792;-71
2023/08/24 01:30:34;;;;;;;9.63;3.38;;;14.70;99.90;;;;;;4984714;28;20054;-71
2023/08/24 01:33:03;;;;;;;7.03;3.63;;;14.80;99.90;;;;;;5000975;28;20050;-71
2023/08/24 01:35:29;;;;;;;5.47;3.80;;;;;;;;;;5004767;28;20073;-70
2023/08/24 01:37:55;;;;;;;5.80;3.83;;;14.70;99.90;;;;;;5002091;28;20884;-70
2023/08/24 01:40:26;;;;;;;10.45;4.65;;;15.10;99.90;;;;;;5005558;28;20048;-70
2023/08/24 01:42:57;;;;;;;12.10;4.72;;;15.10;99.90;;;;;;4983899;28;20041;-71
2023/08/24 01:45:29;;;;;;;13.30;6.18;;;15.10;99.90;;;;;;5003956;28;20049;-71
2023/08/24 01:47:56;;;;;;;11.27;6.85;;;15.10;99.90;;;;;;4983027;28;20046;-71
2023/08/24 01:50:23;;;;;;;9.77;5.90;;;15.30;99.90;;;;;;5003561;28;20049;-71
2023/08/24 01:52:49;;;;;;;8.38;5.47;;;15.30;99.90;;;;;;4985555;28;20053;-71
2023/08/24 01:55:18;;;;;;;8.70;4.55;;;15.10;99.90;;;;;;4986319;28;20725;-71
2023/08/24 01:57:44;;;;;;;9.57;5.43;;;;;;;;;;5001596;28;20042;-71
2023/08/24 02:00:10;;;;;;;9.43;4.90;;;;;;;;;;5004494;28;20044;-71
2023/08/24 02:02:36;;;;;;;8.02;5.18;;;;;;;;;;4983961;28;20165;-71
2023/08/24 02:05:03;;;;;;;6.20;4.45;;;15.20;99.90;;;;;;4986651;28;20069;-71
2023/08/24 02:07:29;;;;;;;10.88;5.63;;;15.30;99.90;;;;;;4984899;28;20042;-71
2023/08/24 02:09:54;;;;;;;10.70;5.70;;;;;;;;;;4985323;28;20053;-71
2023/08/24 02:12:21;;;;;;;12.48;5.45;;;;;;;;;;5002975;28;20060;-71
2023/08/24 02:14:46;;;;;;;7.60;4.63;;;;;;;;;;4986420;28;20037;-71
2023/08/24 02:17:13;;;;;;;7.32;5.50;;;;;;;;;;4983976;28;20046;-71
2023/08/24 02:19:41;;;;;;;6.47;4.82;;;;;;;;;;5003644;28;21222;-71
2023/08/24 02:22:07;;;;;;;7.43;5.15;;;;;;;;;;5006529;28;20779;-71
2023/08/24 02:24:33;;;;;;;7.82;5.13;;;;;;;;;;4990602;28;20052;-71
2023/08/24 02:26:59;;;;;;;8.00;5.22;;;15.10;99.90;;;;;;5006545;28;20487;-71
2023/08/24 02:29:25;;;;;;;9.95;5.07;;;;;;;;;;5007692;28;20096;-72
2023/08/24 02:31:51;;;;;;;8.57;5.28;;;15.10;99.90;;;;;;5004831;28;20069;-71
2023/08/24 02:34:17;;;;;;;9.45;4.88;;;;;;;;;;5008240;28;20042;-71
2023/08/24 02:36:43;;;;;;;7.70;5.32;;;;;;;;;;5006191;28;20042;-70
2023/08/24 02:39:08;;;;;;;7.25;4.45;;;15.00;99.90;;;;;;5007355;28;20053;-71
2023/08/24 02:41:34;;;;;;;6.78;4.63;;;15.20;99.90;;;;;;5007119;28;20163;-71
2023/08/24 02:44:00;;;;;;;12.63;6.60;;;15.20;99.90;;;;;;5006357;28;20713;-72
2023/08/24 02:46:26;;;;;;;7.68;4.72;;;;;;;;;;5004862;28;20046;-71
2023/08/24 02:48:52;;;;;;;8.95;5.25;;;;;;;;;;5004685;28;20041;-71
2023/08/24 02:51:18;;;;;;;8.07;5.50;;;;;;;;;;4988998;28;20042;-71
2023/08/24 02:53:44;;;;;;;13.85;7.82;;;15.10;99.90;;;;;;5008782;28;20504;-71
2023/08/24 02:56:10;;;;;;;36.47;22.58;;;;;;;;;;5007379;28;20117;-70
2023/08/24 02:58:36;;;;;;;16.05;11.02;;;;;;;;;;4987919;28;20455;-70
2023/08/24 03:01:07;;;;;;;15.23;9.52;;;15.10;99.90;;;;;;4988209;28;20088;-71
2023/08/24 03:03:33;;;;;;;15.38;6.13;;;;;;;;;;4989476;28;20519;-72
2023/08/24 03:06:01;;;;;;;7.75;5.45;;;15.30;99.90;;;;;;5004198;28;20034;-71
2023/08/24 03:08:27;;;;;;;11.10;5.65;;;;;;;;;;5002021;28;20092;-71
2023/08/24 03:10:53;;;;;;;10.13;6.03;;;15.20;99.90;;;;;;5006248;28;20128;-70
2023/08/24 03:13:19;;;;;;;10.23;5.78;;;;;;;;;;5007223;28;20046;-70
2023/08/24 03:15:45;;;;;;;8.30;5.72;;;;;;;;;;4988206;28;20054;-71
2023/08/24 03:18:12;;;;;;;11.50;6.63;;;15.40;99.90;;;;;;5006750;28;20415;-70
2023/08/24 03:20:38;;;;;;;10.40;6.57;;;15.30;99.90;;;;;;5008342;28;20058;-70
2023/08/24 03:23:04;;;;;;;12.25;5.95;;;;;;;;;;4988497;28;20060;-71
2023/08/24 03:25:34;;;;;;;10.57;6.95;;;15.50;99.90;;;;;;4989179;28;20746;-71
2023/08/24 03:28:00;;;;;;;9.85;6.03;;;;;;;;;;4986563;28;20042;-71
2023/08/24 03:30:26;;;;;;;14.15;6.72;;;;;;;;;;4989521;28;20494;-70
2023/08/24 03:32:52;;;;;;;13.30;7.43;;;;;;;;;;5004524;28;20141;-71
2023/08/24 03:35:18;;;;;;;15.02;6.20;;;;;;;;;;4988327;28;20183;-70
2023/08/24 03:37:44;;;;;;;9.52;6.10;;;;;;;;;;5003530;28;20125;-70
2023/08/24 03:40:11;;;;;;;12.60;7.38;;;15.10;99.90;;;;;;5003955;28;20619;-71
2023/08/24 03:42:36;;;;;;;10.30;5.95;;;15.20;99.90;;;;;;5005614;28;20504;-70
2023/08/24 03:45:03;;;;;;;8.50;6.20;;;;;;;;;;4986153;28;20056;-71
2023/08/24 03:47:28;;;;;;;11.02;6.05;;;15.10;99.90;;;;;;5002504;28;20099;-70
2023/08/24 03:49:54;;;;;;;13.18;6.90;;;;;;;;;;4988605;28;20075;-70
2023/08/24 03:52:20;;;;;;;9.77;7.43;;;15.00;99.90;;;;;;4988445;28;20046;-70
2023/08/24 03:54:46;;;;;;;12.55;6.70;;;;;;;;;;4983107;28;20119;-70
2023/08/24 03:57:12;;;;;;;8.70;6.00;;;;;;;;;;5002490;28;20073;-70
2023/08/24 03:59:38;;;;;;;12.57;6.03;;;;;;;;;;5006276;28;20085;-70
2023/08/24 04:02:04;;;;;;;8.60;5.22;;;;;;;;;;5003252;28;20081;-70
2023/08/24 04:04:30;;;;;;;7.75;5.35;;;15.00;99.90;;;;;;4987547;28;20176;-71
2023/08/24 04:06:56;;;;;;;7.25;4.97;;;14.90;99.90;;;;;;4986236;28;20096;-70
2023/08/24 04:09:22;;;;;;;13.70;4.95;;;;;;;;;;4987893;28;20050;-70
2023/08/24 04:11:48;;;;;;;9.23;5.05;;;;;;;;;;4988235;28;20045;-71
2023/08/24 04:14:13;;;;;;;7.38;5.57;;;;;;;;;;4988645;28;20130;-70
2023/08/24 04:16:39;;;;;;;5.00;4.05;;;14.50;99.90;;;;;;4999682;28;20093;-70
2023/08/24 04:19:05;;;;;;;5.07;3.60;;;;;;;;;;5000617;28;20077;-70
2023/08/24 04:21:31;;;;;;;5.25;4.10;;;;;;;;;;5006210;28;20037;-71
2023/08/24 04:23:57;;;;;;;5.97;4.43;;;;;;;;;;5005029;28;20040;-71
2023/08/24 04:26:23;;;;;;;8.02;4.72;;;;;;;;;;5004818;28;20049;-70
2023/08/24 04:28:49;;;;;;;7.65;4.70;;;14.40;99.90;;;;;;4971149;28;20139;-70
2023/08/24 04:31:15;;;;;;;9.90;5.82;;;14.50;99.90;;;;;;5003436;28;20053;-71
2023/08/24 04:33:41;;;;;;;11.20;5.82;;;14.50;99.90;;;;;;5005770;28;20038;-71
2023/08/24 04:36:07;;;;;;;8.07;5.40;;;;;;;;;;5003772;28;20046;-70
2023/08/24 04:38:32;;;;;;;10.20;5.40;;;14.50;99.90;;;;;;5003229;28;20500;-70
2023/08/24 04:40:58;;;;;;;9.07;5.47;;;;;;;;;;4998835;28;20141;-71
2023/08/24 04:43:25;;;;;;;9.80;5.43;;;;;;;;;;4987059;28;20758;-71
2023/08/24 04:45:53;;;;;;;11.00;6.50;;;14.30;99.90;;;;;;5001516;28;20732;-71
2023/08/24 04:48:23;;;;;;;11.20;6.00;;;14.40;99.90;;;;;;5002343;28;20050;-70
2023/08/24 04:50:49;;;;;;;16.52;6.72;;;;;;;;;;5001877;28;20056;-71
2023/08/24 04:53:16;;;;;;;14.00;6.75;;;14.40;99.90;;;;;;4985418;28;20066;-71
2023/08/24 04:55:42;;;;;;;14.15;6.60;;;;;;;;;;4986820;28;20053;-70
2023/08/24 04:58:09;;;;;;;10.05;5.85;;;;;;;;;;5005015;28;20045;-71
2023/08/24 05:00:35;;;;;;;9.32;5.47;;;;;;;;;;4995645;28;20592;-71
2023/08/24 05:03:02;;;;;;;11.90;6.18;;;14.90;99.90;;;;;;4971266;28;20556;-71
2023/08/24 05:05:35;;;;;;;10.02;5.53;;;14.80;99.90;;;;;;4994158;28;20042;-70
2023/08/24 05:08:03;;;;;;;9.73;6.00;;;14.90;99.90;;;;;;4985260;28;20087;-71
2023/08/24 05:10:33;;;;;;;14.18;6.18;;;14.90;99.90;;;;;;4987418;28;20045;-70
2023/08/24 05:13:00;;;;;;;9.48;5.57;;;14.90;99.90;;;;;;5001950;28;20064;-70
2023/08/24 05:15:26;;;;;;;11.20;5.93;;;14.90;99.90;;;;;;5003584;28;20425;-71
2023/08/24 05:17:54;;;;;;;11.50;6.60;;;15.10;99.90;;;;;;5004199;28;20042;-70
2023/08/24 05:20:21;;;;;;;10.35;6.22;;;15.00;99.90;;;;;;5004950;28;20038;-70
2023/08/24 05:22:47;;;;;;;9.20;5.70;;;;;;;;;;5004892;28;20042;-71
2023/08/24 05:25:12;;;;;;;9.07;6.10;;;15.00;99.90;;;;;;5002421;28;20029;-70
2023/08/24 05:27:39;;;;;;;10.98;6.20;;;14.90;99.90;;;;;;4984387;28;20188;-70
2023/08/24 05:30:06;;;;;;;12.52;5.68;;;15.20;99.90;;;;;;4986709;28;20057;-71
2023/08/24 05:32:32;;;;;;;13.55;6.50;;;15.20;99.90;;;;;;4986057;28;20053;-70
2023/08/24 05:34:57;;;;;;;12.38;6.70;;;15.20;99.90;;;;;;5004326;28;20042;-71
2023/08/24 05:37:24;;;;;;;9.40;6.20;;;15.40;99.90;;;;;;5000937;28;20050;-71
2023/08/24 05:39:50;;;;;;;10.65;6.68;;;;;;;;;;5001440;28;20042;-71
2023/08/24 05:42:16;;;;;;;11.85;6.35;;;;;;;;;;4987216;28;20052;-71
2023/08/24 05:44:41;;;;;;;17.25;6.97;;;15.40;99.90;;;;;;4984672;28;20084;-71
2023/08/24 05:47:07;;;;;;;13.85;7.28;;;15.60;99.90;;;;;;4985300;28;20145;-71
2023/08/24 05:49:33;;;;;;;11.15;6.65;;;15.60;99.90;;;;;;4982718;28;20248;-70
2023/08/24 05:51:59;;;;;;;11.68;6.63;;;;;;;;;;4986818;28;20057;-71
2023/08/24 05:54:25;;;;;;;17.77;7.20;;;;;;;;;;4985468;28;20048;-71
2023/08/24 05:56:51;;;;;;;12.85;6.93;;;;;;;;;;4984674;28;20054;-72
2023/08/24 05:59:17;;;;;;;10.80;6.80;;;;;;;;;;5002581;28;20046;-71
2023/08/24 06:01:42;;;;;;;16.27;7.75;;;;;;;;;;5003092;28;20412;-71
2023/08/24 06:04:08;;;;;;;9.18;6.80;;;15.80;99.90;;;;;;5001193;28;20061;-71
2023/08/24 06:06:35;;;;;;;10.02;7.28;;;16.20;99.90;;;;;;5002616;28;20046;-71
2023/08/24 06:09:00;;;;;;;14.52;7.10;;;16.20;99.90;;;;;;4967760;28;20479;-71
2023/08/24 06:11:26;;;;;;;12.30;7.10;;;16.50;99.90;;;;;;5003466;28;20038;-71
2023/08/24 06:13:54;;;;;;;12.48;6.93;;;;;;;;;;5004484;28;20130;-71
2023/08/24 06:16:20;;;;;;;12.20;5.55;;;;;;;;;;4984580;28;20104;-70
2023/08/24 06:18:46;;;;;;;12.95;5.40;;;18.70;99.90;;;;;;4985415;28;20046;-71
2023/08/24 06:21:11;;;;;;;9.15;4.80;;;19.30;99.90;;;;;;5003054;28;20459;-70
2023/08/24 06:23:38;;;;;;;8.18;4.45;;;19.80;99.90;;;;;;4987034;28;20129;-71
2023/08/24 06:26:04;;;;;;;10.88;4.22;;;19.90;99.90;;;;;;5003144;28;20046;-70
2023/08/24 06:28:30;;;;;;;7.72;3.65;;;20.10;99.90;;;;;;4985826;28;20504;-70
2023/08/24 06:30:56;;;;;;;5.82;3.63;;;19.80;99.90;;;;;;4986043;28;20056;-71
2023/08/24 06:33:29;;;;;;;7.07;3.65;;;19.70;99.90;;;;;;5004953;28;20827;-71
2023/08/24 06:35:58;;;;;;;6.93;3.95;;;19.70;99.90;;;;;;5003042;28;20133;-71
2023/08/24 06:38:24;;;;;;;11.60;3.63;;;20.50;99.90;;;;;;4985183;28;20046;-70
2023/08/24 06:40:50;;;;;;;8.32;3.63;;;20.60;99.90;;;;;;4985642;28;20476;-71
2023/08/24 06:43:15;;;;;;;14.68;3.45;;;20.20;99.90;;;;;;4990850;28;20038;-70
2023/08/24 06:45:41;;;;;;;13.35;3.60;;;19.90;99.90;;;;;;4985057;28;20038;-71
2023/08/24 06:48:07;;;;;;;8.73;3.72;;;19.70;99.90;;;;;;5004240;28;20144;-71
2023/08/24 06:50:38;;;;;;;9.20;3.60;;;19.40;99.90;;;;;;5002072;28;20053;-71
2023/08/24 06:53:04;;;;;;;5.40;3.33;;;19.80;99.90;;;;;;4986034;28;20062;-71
2023/08/24 06:55:30;;;;;;;10.45;3.20;;;19.60;99.90;;;;;;4984940;28;20042;-71
2023/08/24 06:57:56;;;;;;;7.65;3.35;;;19.60;99.90;;;;;;5000807;28;20077;-71
2023/08/24 07:00:22;;;;;;;11.65;3.88;;;19.80;99.90;;;;;;5002985;28;20034;-72
2023/08/24 07:02:49;;;;;;;4.93;3.35;;;20.00;99.90;;;;;;5001762;28;20038;-71
2023/08/24 07:05:18;;;;;;;9.18;3.67;;;20.60;99.90;;;;;;4983694;28;20076;-71
2023/08/24 07:07:45;;;;;;;7.30;3.17;;;21.50;99.90;;;;;;4983335;28;20046;-71
2023/08/24 07:10:11;;;;;;;6.07;2.95;;;21.50;99.90;;;;;;4999311;28;20080;-71
2023/08/24 07:12:40;;;;;;;4.82;2.75;;;21.70;99.90;;;;;;5008736;28;20054;-71
2023/08/24 07:15:07;;;;;;;5.60;2.90;;;21.40;99.90;;;;;;4987615;28;20522;-71
2023/08/24 07:17:32;;;;;;;5.78;3.05;;;20.90;99.90;;;;;;4981754;28;20042;-71
2023/08/24 07:19:58;;;;;;;7.00;3.03;;;20.80;99.90;;;;;;4989927;28;20048;-71
2023/08/24 07:22:26;;;;;;;9.60;4.05;;;20.60;99.90;;;;;;5008090;28;20026;-71
2023/08/24 07:24:52;;;;;;;7.10;3.60;;;20.70;99.90;;;;;;5008570;28;20099;-71
2023/08/24 07:27:18;;;;;;;10.20;3.60;;;20.50;99.90;;;;;;5007447;28;20049;-71
2023/08/24 07:29:44;;;;;;;8.77;4.75;;;20.40;99.90;;;;;;4989776;28;20052;-71
2023/08/24 07:32:10;;;;;;;6.70;4.50;;;20.20;99.90;;;;;;5005444;28;20042;-70
2023/08/24 07:34:35;;;;;;;10.45;5.28;;;20.10;99.90;;;;;;5005540;28;20050;-70
2023/08/24 07:37:01;;;;;;;11.02;4.88;;;20.00;99.90;;;;;;5004658;28;20043;-70
2023/08/24 07:39:27;;;;;;;6.38;4.18;;;20.10;99.90;;;;;;4985302;28;20121;-71
2023/08/24 07:41:52;;;;;;;10.02;5.97;;;20.10;99.90;;;;;;4988839;28;20096;-71
2023/08/24 07:44:18;;;;;;;11.35;5.70;;;20.30;99.90;;;;;;4986602;28;20855;-71
2023/08/24 07:46:44;;;;;;;36.83;22.08;;;20.10;99.90;;;;;;5006388;28;20145;-70
2023/08/24 07:49:10;;;;;;;20.67;13.07;;;20.00;99.90;;;;;;4984924;28;20050;-71
2023/08/24 07:51:36;;;;;;;19.67;8.48;;;20.10;99.90;;;;;;5006326;28;20053;-71
2023/08/24 07:54:04;;;;;;;12.55;5.90;;;20.10;99.90;;;;;;4984398;28;20046;-70
2023/08/24 07:56:29;;;;;;;15.27;6.88;;;20.10;99.90;;;;;;5001355;28;20041;-70
2023/08/24 07:58:55;;;;;;;14.20;6.60;;;20.40;99.90;;;;;;4982981;28;20527;-70
2023/08/24 08:01:21;;;;;;;10.10;5.80;;;20.50;99.90;;;;;;5004662;28;20489;-70
2023/08/24 08:03:46;;;;;;;14.05;6.47;;;20.40;99.90;;;;;;5002504;28;20045;-70
2023/08/24 08:06:13;;;;;;;10.63;5.97;;;20.30;99.90;;;;;;5006086;28;20038;-70
2023/08/24 08:08:39;;;;;;;13.82;6.47;;;20.40;99.90;;;;;;4994693;28;20145;-70
2023/08/24 08:11:05;;;;;;;13.40;7.00;;;20.60;99.90;;;;;;5005010;28;20044;-70
2023/08/24 08:13:30;;;;;;;11.52;6.68;;;20.50;99.90;;;;;;5010871;28;20150;-71
2023/08/24 08:16:07;;;;;;;12.98;6.32;;;20.80;99.90;;;;;;5008881;28;20756;-70
2023/08/24 08:18:33;;;;;;;11.38;6.85;;;20.80;99.90;;;;;;4995590;28;20053;-70
2023/08/24 08:20:59;;;;;;;11.80;5.28;;;22.00;99.90;;;;;;5002733;28;20186;-71
2023/08/24 08:23:24;;;;;;;10.63;5.97;;;20.80;99.90;;;;;;4997685;28;20058;-71
2023/08/24 08:25:50;;;;;;;7.63;4.78;;;21.00;99.90;;;;;;4977809;28;20042;-71
2023/08/24 08:28:17;;;;;;;11.82;6.32;;;21.10;99.90;;;;;;5003740;28;20049;-70
2023/08/24 08:30:43;;;;;;;9.70;5.45;;;21.20;99.90;;;;;;5005556;28;20069;-70
2023/08/24 08:33:09;;;;;;;13.65;7.75;;;21.30;99.90;;;;;;5003991;28;20425;-70
2023/08/24 08:35:34;;;;;;;12.70;6.70;;;21.00;99.90;;;;;;5003751;28;20034;-71
2023/08/24 08:38:00;;;;;;;11.20;6.05;;;21.50;99.90;;;;;;5005194;28;20526;-70
2023/08/24 08:40:30;;;;;;;13.30;7.53;;;21.20;99.90;;;;;;5003063;28;20042;-71
2023/08/24 08:42:59;;;;;;;8.63;5.82;;;21.40;99.90;;;;;;4986870;28;20053;-70
2023/08/24 08:45:28;;;;;;;15.68;6.18;;;21.40;99.90;;;;;;4986855;28;20678;-69
2023/08/24 08:48:01;;;;;;;12.48;7.03;;;21.80;99.90;;;;;;5001820;28;20053;-69
2023/08/24 08:50:27;;;;;;;10.95;5.50;;;21.70;99.90;;;;;;5004032;28;20395;-69
2023/08/24 08:52:53;;;;;;;11.95;6.18;;;23.60;99.90;;;;;;5004717;28;20120;-69
2023/08/24 08:55:20;;;;;;;10.20;6.18;;;22.30;99.90;;;;;;5001406;28;20534;-70
2023/08/24 08:57:49;;;;;;;10.13;6.40;;;21.90;99.90;;;;;;5000913;28;20144;-69
2023/08/24 09:00:18;;;;;;;13.63;5.90;;;22.10;99.90;;;;;;4993910;28;20761;-70
2023/08/24 09:02:45;;;;;;;15.23;6.45;;;22.00;99.90;;;;;;4998406;28;20041;-69
2023/08/24 09:05:12;;;;;;;14.70;6.88;;;22.00;99.90;;;;;;4983709;28;20038;-69
2023/08/24 09:07:41;;;;;;;10.43;5.20;;;22.00;99.90;;;;;;4982294;28;20052;-69
2023/08/24 09:10:07;;;;;;;13.27;6.13;;;22.20;99.90;;;;;;4998695;28;20112;-69
2023/08/24 09:12:34;;;;;;;15.80;6.88;;;22.10;99.90;;;;;;5002475;28;20064;-69
2023/08/24 09:15:02;;;;;;;12.38;6.72;;;22.10;99.90;;;;;;4982870;28;20378;-69
2023/08/24 09:17:28;;;;;;;10.00;7.18;;;21.80;99.90;;;;;;4981124;28;20044;-70
2023/08/24 09:19:58;;;;;;;13.23;7.30;;;22.00;99.90;;;;;;4977850;28;20437;-70
2023/08/24 09:22:24;;;;;;;10.63;5.97;;;22.10;99.90;;;;;;5004860;28;20070;-69
2023/08/24 09:24:50;;;;;;;12.48;6.38;;;22.00;99.90;;;;;;5001688;28;20571;-69
2023/08/24 09:27:20;;;;;;;11.52;5.95;;;22.60;99.90;;;;;;4983385;28;20507;-70
2023/08/24 09:29:52;;;;;;;11.07;6.78;;;21.90;99.90;;;;;;4999839;28;20097;-69
2023/08/24 09:32:27;;;;;;;14.43;6.63;;;21.90;99.90;;;;;;5002328;28;20453;-69
2023/08/24 09:34:53;;;;;;;10.68;6.63;;;21.90;99.90;;;;;;4999208;28;20034;-70
2023/08/24 09:37:19;;;;;;;11.18;7.28;;;21.70;99.90;;;;;;4985733;28;20087;-70
2023/08/24 09:39:46;;;;;;;12.50;6.93;;;21.60;99.90;;;;;;4981498;28;20494;-69
2023/08/24 09:42:13;;;;;;;12.40;6.68;;;21.80;99.90;;;;;;4974338;28;20049;-70
2023/08/24 09:44:45;;;;;;;11.93;7.32;;;21.50;99.90;;;;;;4996596;28;20405;-70
2023/08/24 09:47:11;;;;;;;10.10;6.90;;;21.80;99.90;;;;;;5002304;28;20141;-69
2023/08/24 09:49:37;;;;;;;26.83;8.15;;;21.50;99.90;;;;;;4986891;28;20144;-70
2023/08/24 09:52:07;;;;;;;12.30;6.40;;;21.50;99.90;;;;;;4995714;28;20074;-70
2023/08/24 09:54:36;;;;;;;15.25;7.93;;;21.60;99.90;;;;;;4995595;28;20053;-70
2023/08/24 09:57:04;;;;;;;15.00;7.65;;;21.50;99.90;;;;;;5001987;28;20691;-69
2023/08/24 09:59:31;;;;;;;13.70;7.07;;;21.60;99.90;;;;;;5004038;28;20164;-69
2023/08/24 10:01:57;;;;;;;13.98;8.13;;;21.60;99.90;;;;;;4985133;28;20519;-70
2023/08/24 10:04:29;;;;;;;13.65;8.15;;;21.30;99.90;;;;;;5002140;28;20157;-70
2023/08/24 10:07:15;;;;;;;12.63;7.13;;;21.40;99.90;;;;;;5001491;28;20049;-69
2023/08/24 10:09:55;;;;;;;10.32;7.50;;;21.40;99.90;;;;;;4986789;28;20058;-70
2023/08/24 10:12:26;;;;;;;11.55;7.10;;;21.30;99.90;;;;;;4994623;28;20104;-70
2023/08/24 10:15:03;;;;;;;13.02;7.75;;;21.50;99.90;;;;;;4978692;28;20065;-70
2023/08/24 10:17:31;;;;;;;13.73;7.57;;;21.30;99.90;;;;;;4981023;28;20050;-69
2023/08/24 10:20:00;;;;;;;14.10;7.80;;;21.10;99.90;;;;;;5000067;28;20126;-69
2023/08/24 10:22:28;;;;;;;13.95;7.70;;;21.10;99.90;;;;;;5002257;28;20041;-69
2023/08/24 10:24:54;;;;;;;11.25;7.55;;;21.50;99.90;;;;;;4992912;28;20118;-70
2023/08/24 10:27:23;;;;;;;13.88;8.10;;;21.00;99.90;;;;;;5003726;28;20431;-70
2023/08/24 10:29:49;;;;;;;16.00;8.82;;;21.20;99.90;;;;;;4999029;28;20073;-70
2023/08/24 10:32:15;;;;;;;11.98;8.80;;;21.30;99.90;;;;;;4982297;28;20485;-70
2023/08/24 10:34:41;;;;;;;16.15;9.55;;;21.30;99.90;;;;;;4980397;28;20101;-69
2023/08/24 10:37:09;;;;;;;12.13;8.70;;;21.00;99.90;;;;;;4998221;28;20047;-69
2023/08/24 10:39:38;;;;;;;12.20;7.85;;;22.70;99.90;;;;;;4981399;28;20517;-69
2023/08/24 10:42:03;;;;;;;14.88;9.02;;;21.10;99.90;;;;;;4982671;28;20088;-70
2023/08/24 10:44:40;;;;;;;13.73;8.75;;;21.10;99.90;;;;;;4987354;28;20116;-69
2023/08/24 10:47:12;;;;;;;17.20;9.98;;;21.30;99.90;;;;;;5003371;28;20045;-70
2023/08/24 10:49:38;;;;;;;16.77;8.60;;;21.10;99.90;;;;;;4980219;28;20133;-70
2023/08/24 10:52:20;;;;;;;18.58;9.65;;;21.00;99.90;;;;;;4985535;28;20065;-70
2023/08/24 10:54:48;;;;;;;18.17;8.45;;;21.10;99.90;;;;;;4986534;28;20506;-70
2023/08/24 10:57:27;;;;;;;16.73;9.45;;;20.90;99.90;;;;;;5008022;28;20115;-70
2023/08/24 11:00:00;;;;;;;22.42;8.45;;;21.00;99.90;;;;;;4998983;28;20038;-70
2023/08/24 11:02:26;;;;;;;16.42;9.85;;;21.00;99.90;;;;;;5004890;28;20040;-70
2023/08/24 11:05:05;;;;;;;19.02;9.95;;;21.30;99.90;;;;;;4986752;28;20042;-70
2023/08/24 11:07:31;;;;;;;15.07;9.32;;;21.20;99.90;;;;;;4989223;28;20096;-70
2023/08/24 11:09:57;;;;;;;14.52;9.38;;;21.30;99.90;;;;;;5004056;28;20037;-69
2023/08/24 11:12:22;;;;;;;21.77;10.63;;;21.10;99.90;;;;;;5001677;28;20422;-70
2023/08/24 11:14:58;;;;;;;14.00;9.98;;;21.20;99.90;;;;;;4987352;28;20049;-70
2023/08/24 11:17:29;;;;;;;13.98;10.07;;;21.40;99.90;;;;;;5003166;28;20046;-70
2023/08/24 11:19:54;;;;;;;13.57;9.52;;;21.40;99.90;;;;;;5004151;28;20369;-70
2023/08/24 11:22:21;;;;;;;13.73;10.10;;;21.20;99.90;;;;;;5004670;28;20112;-70
2023/08/24 11:24:47;;;;;;;14.27;10.93;;;21.20;99.90;;;;;;5004690;28;20100;-70
2023/08/24 11:27:12;;;;;;;15.30;10.85;;;21.60;99.90;;;;;;5005880;28;20041;-70
2023/08/24 11:29:38;;;;;;;17.40;10.38;;;21.10;99.90;;;;;;4985306;28;20104;-70
2023/08/24 11:32:04;;;;;;;18.52;11.18;;;21.30;99.90;;;;;;4980710;28;20065;-70
2023/08/24 11:34:30;;;;;;;14.48;9.88;;;21.30;99.90;;;;;;5002158;28;20037;-70
2023/08/24 11:36:56;;;;;;;16.10;11.00;;;21.30;99.90;;;;;;5001899;28;20111;-70
2023/08/24 11:39:24;;;;;;;17.17;10.82;;;21.50;99.90;;;;;;5002461;28;20037;-70
2023/08/24 11:42:03;;;;;;;14.30;10.50;;;21.40;99.90;;;;;;4997188;28;20404;-70
2023/08/24 11:44:43;;;;;;;15.02;10.32;;;21.60;99.90;;;;;;4981963;28;20046;-70
2023/08/24 11:47:10;;;;;;;16.80;10.38;;;21.60;99.90;;;;;;5004637;28;20535;-70
2023/08/24 11:49:35;;;;;;;15.75;11.63;;;21.70;99.90;;;;;;5004229;28;20038;-70
2023/08/24 11:52:01;;;;;;;14.65;10.07;;;21.70;99.90;;;;;;4986360;28;20092;-70
2023/08/24 11:54:27;;;;;;;13.05;9.93;;;22.00;99.90;;;;;;5005137;28;20149;-70
2023/08/24 11:56:53;;;;;;;13.60;10.27;;;21.90;99.90;;;;;;5002511;28;20140;-70
2023/08/24 11:59:19;;;;;;;15.15;10.20;;;21.90;99.90;;;;;;4980784;28;20038;-70
2023/08/24 12:01:46;;;;;;;11.70;9.27;;;21.80;99.90;;;;;;4999798;28;20888;-70
2023/08/24 12:04:12;;;;;;;15.90;10.18;;;21.70;99.90;;;;;;5000744;28;20056;-70
2023/08/24 12:06:39;;;;;;;15.00;10.30;;;22.10;99.90;;;;;;5001925;28;20054;-70
2023/08/24 12:09:06;;;;;;;16.83;10.07;;;22.00;99.90;;;;;;4985004;28;20089;-70
2023/08/24 12:11:35;;;;;;;12.00;9.48;;;22.00;99.90;;;;;;5000972;28;20042;-70
2023/08/24 12:14:01;;;;;;;15.20;9.75;;;22.90;99.90;;;;;;4979859;28;20055;-70
2023/08/24 12:16:30;;;;;;;15.90;9.88;;;22.00;99.90;;;;;;4987671;28;20052;-70
2023/08/24 12:18:59;;;;;;;17.02;10.48;;;22.40;99.90;;;;;;5006407;28;20488;-70
2023/08/24 12:21:26;;;;;;;12.23;10.50;;;21.90;99.90;;;;;;5002536;28;20076;-70
2023/08/24 12:24:05;;;;;;;16.48;10.73;;;22.20;99.90;;;;;;4983843;28;20045;-70
2023/08/24 12:26:32;;;;;;;15.40;11.00;;;22.50;99.90;;;;;;4979419;28;20118;-70
2023/08/24 12:29:05;;;;;;;16.92;12.45;;;22.40;99.90;;;;;;4996586;28;20050;-70
2023/08/24 12:31:31;;;;;;;16.38;11.95;;;22.20;99.90;;;;;;4985383;28;20050;-70
2023/08/24 12:34:03;;;;;;;16.73;12.15;;;22.30;99.90;;;;;;4980769;28;20052;-70
2023/08/24 12:36:30;;;;;;;16.17;12.10;;;22.20;99.90;;;;;;4995698;28;20038;-70
2023/08/24 12:38:57;;;;;;;16.65;12.00;;;23.90;99.90;;;;;;4980593;28;20501;-70
2023/08/24 12:41:23;;;;;;;15.65;11.45;;;22.20;99.90;;;;;;4981016;28;20050;-70
2023/08/24 12:43:51;;;;;;;15.82;11.75;;;22.30;99.90;;;;;;4998560;28;20056;-70
2023/08/24 12:46:16;;;;;;;18.00;12.70;;;22.50;99.90;;;;;;5001990;28;20445;-70
2023/08/24 12:48:42;;;;;;;18.75;12.43;;;22.50;99.90;;;;;;4982727;28;20153;-70
2023/08/24 12:51:08;;;;;;;18.20;13.57;;;22.10;99.90;;;;;;4988585;28;20523;-70
2023/08/24 12:53:33;;;;;;;15.40;13.02;;;22.50;99.90;;;;;;4999227;28;20048;-70
2023/08/24 12:55:59;;;;;;;19.25;13.30;;;22.40;99.90;;;;;;4997370;28;20134;-70
2023/08/24 12:58:25;;;;;;;17.08;14.07;;;22.30;99.90;;;;;;5000572;28;20121;-70
2023/08/24 13:00:51;;;;;;;20.92;15.63;;;22.40;99.90;;;;;;4997303;28;20039;-70
2023/08/24 13:03:16;;;;;;;25.67;16.23;;;22.30;99.90;;;;;;4984584;28;20042;-70